Terminal Aerodrome Forecast
Issued by NWS

Home | Current Version | Previous Version | Text Only | Print | Product List | Glossary On
Versions: 1 2 3 4 5 6 7 8 9 10 11 12 13 14 15 16 17 18 19 20
000
FTUS41 KBGM 032333
TAFELM
TAF
KELM 032333Z 0400/0424 VRB03KT P6SM SCT150
     FM040800 VRB03KT 2SM BR SCT005
     FM041200 17008KT P6SM BKN045=

USA.gov is the U.S. government's official web portal to all federal, state and local government web resources and services.